sensor_id;sensor_type;location;lat;lon;timestamp;P1;durP1;ratioP1;P2;durP2;ratioP2
16822;SDS011;8528;49.976;11.858;2023-10-31T00:02:14;7.37;;;6.67;;
16822;SDS011;8528;49.976;11.858;2023-10-31T00:04:41;6.60;;;6.00;;
16822;SDS011;8528;49.976;11.858;2023-10-31T00:07:08;6.83;;;6.17;;
16822;SDS011;8528;49.976;11.858;2023-10-31T00:09:35;5.97;;;5.40;;
16822;SDS011;8528;49.976;11.858;2023-10-31T00:12:02;5.57;;;5.07;;
16822;SDS011;8528;49.976;11.858;2023-10-31T00:14:29;5.17;;;4.67;;
16822;SDS011;8528;49.976;11.858;2023-10-31T00:16:57;5.77;;;4.90;;
16822;SDS011;8528;49.976;11.858;2023-10-31T00:19:25;5.03;;;4.53;;
16822;SDS011;8528;49.976;11.858;2023-10-31T00:21:51;5.30;;;4.80;;
16822;SDS011;8528;49.976;11.858;2023-10-31T00:24:19;5.07;;;4.57;;
16822;SDS011;8528;49.976;11.858;2023-10-31T00:26:45;4.50;;;4.10;;
16822;SDS011;8528;49.976;11.858;2023-10-31T00:29:12;3.83;;;3.53;;
16822;SDS011;8528;49.976;11.858;2023-10-31T00:31:39;3.50;;;3.20;;
16822;SDS011;8528;49.976;11.858;2023-10-31T00:34:09;5.67;;;4.40;;
16822;SDS011;8528;49.976;11.858;2023-10-31T00:36:36;4.90;;;4.07;;
16822;SDS011;8528;49.976;11.858;2023-10-31T00:39:03;4.33;;;3.80;;
16822;SDS011;8528;49.976;11.858;2023-10-31T00:41:30;4.40;;;4.00;;
16822;SDS011;8528;49.976;11.858;2023-10-31T00:43:57;4.43;;;3.87;;
16822;SDS011;8528;49.976;11.858;2023-10-31T00:46:24;4.73;;;4.33;;
16822;SDS011;8528;49.976;11.858;2023-10-31T00:48:51;4.47;;;4.07;;
16822;SDS011;8528;49.976;11.858;2023-10-31T00:51:18;6.70;;;4.10;;
16822;SDS011;8528;49.976;11.858;2023-10-31T00:53:45;4.83;;;4.43;;
16822;SDS011;8528;49.976;11.858;2023-10-31T00:56:12;5.33;;;4.83;;
16822;SDS011;8528;49.976;11.858;2023-10-31T00:58:39;5.40;;;4.90;;
16822;SDS011;8528;49.976;11.858;2023-10-31T01:01:05;4.60;;;4.20;;
16822;SDS011;8528;49.976;11.858;2023-10-31T01:03:33;5.30;;;4.47;;
16822;SDS011;8528;49.976;11.858;2023-10-31T01:05:59;4.10;;;3.70;;
16822;SDS011;8528;49.976;11.858;2023-10-31T01:08:26;4.07;;;3.40;;
16822;SDS011;8528;49.976;11.858;2023-10-31T01:10:53;3.63;;;2.80;;
16822;SDS011;8528;49.976;11.858;2023-10-31T01:13:20;2.60;;;2.40;;
16822;SDS011;8528;49.976;11.858;2023-10-31T01:15:47;1.87;;;1.77;;
16822;SDS011;8528;49.976;11.858;2023-10-31T01:18:16;1.90;;;1.63;;
16822;SDS011;8528;49.976;11.858;2023-10-31T01:20:43;1.50;;;1.40;;
16822;SDS011;8528;49.976;11.858;2023-10-31T01:23:10;2.90;;;2.70;;
16822;SDS011;8528;49.976;11.858;2023-10-31T01:25:37;3.63;;;2.43;;
16822;SDS011;8528;49.976;11.858;2023-10-31T01:28:04;3.10;;;2.90;;
16822;SDS011;8528;49.976;11.858;2023-10-31T01:30:31;4.63;;;4.23;;
16822;SDS011;8528;49.976;11.858;2023-10-31T01:32:58;4.40;;;4.00;;
16822;SDS011;8528;49.976;11.858;2023-10-31T01:35:25;4.13;;;3.40;;
16822;SDS011;8528;49.976;11.858;2023-10-31T01:37:52;3.47;;;3.17;;
16822;SDS011;8528;49.976;11.858;2023-10-31T01:40:18;3.37;;;3.07;;
16822;SDS011;8528;49.976;11.858;2023-10-31T01:42:45;3.40;;;3.10;;
16822;SDS011;8528;49.976;11.858;2023-10-31T01:45:12;3.30;;;3.00;;
16822;SDS011;8528;49.976;11.858;2023-10-31T01:47:39;3.17;;;2.87;;
16822;SDS011;8528;49.976;11.858;2023-10-31T01:50:06;3.20;;;2.90;;
16822;SDS011;8528;49.976;11.858;2023-10-31T01:52:34;2.30;;;2.10;;
16822;SDS011;8528;49.976;11.858;2023-10-31T01:55:02;3.20;;;2.90;;
16822;SDS011;8528;49.976;11.858;2023-10-31T01:57:30;3.87;;;3.57;;
16822;SDS011;8528;49.976;11.858;2023-10-31T01:59:57;3.60;;;3.23;;
16822;SDS011;8528;49.976;11.858;2023-10-31T02:02:25;4.37;;;3.97;;
16822;SDS011;8528;49.976;11.858;2023-10-31T02:04:53;4.07;;;3.43;;
16822;SDS011;8528;49.976;11.858;2023-10-31T02:07:20;3.67;;;3.30;;
16822;SDS011;8528;49.976;11.858;2023-10-31T02:09:47;3.23;;;2.70;;
16822;SDS011;8528;49.976;11.858;2023-10-31T02:12:48;2.50;;;2.30;;
16822;SDS011;8528;49.976;11.858;2023-10-31T02:15:08;2.63;;;2.30;;
16822;SDS011;8528;49.976;11.858;2023-10-31T02:17:35;2.60;;;2.40;;
16822;SDS011;8528;49.976;11.858;2023-10-31T02:20:02;2.47;;;2.27;;
16822;SDS011;8528;49.976;11.858;2023-10-31T02:22:29;2.67;;;2.47;;
16822;SDS011;8528;49.976;11.858;2023-10-31T02:24:56;2.60;;;2.40;;
16822;SDS011;8528;49.976;11.858;2023-10-31T02:27:23;2.30;;;2.10;;
16822;SDS011;8528;49.976;11.858;2023-10-31T02:29:50;3.43;;;2.03;;
16822;SDS011;8528;49.976;11.858;2023-10-31T02:32:16;2.00;;;1.83;;
16822;SDS011;8528;49.976;11.858;2023-10-31T02:34:44;2.30;;;2.10;;
16822;SDS011;8528;49.976;11.858;2023-10-31T02:37:11;2.70;;;2.50;;
16822;SDS011;8528;49.976;11.858;2023-10-31T02:39:38;2.60;;;2.30;;
16822;SDS011;8528;49.976;11.858;2023-10-31T02:42:05;2.93;;;2.10;;
16822;SDS011;8528;49.976;11.858;2023-10-31T02:44:32;2.40;;;2.20;;
16822;SDS011;8528;49.976;11.858;2023-10-31T02:46:59;2.10;;;1.90;;
16822;SDS011;8528;49.976;11.858;2023-10-31T02:49:26;2.03;;;1.93;;
16822;SDS011;8528;49.976;11.858;2023-10-31T02:51:52;2.20;;;2.07;;
16822;SDS011;8528;49.976;11.858;2023-10-31T02:54:19;1.70;;;1.60;;
16822;SDS011;8528;49.976;11.858;2023-10-31T02:56:46;1.87;;;1.73;;
16822;SDS011;8528;49.976;11.858;2023-10-31T02:59:13;1.70;;;1.60;;
16822;SDS011;8528;49.976;11.858;2023-10-31T03:01:40;1.60;;;1.50;;
16822;SDS011;8528;49.976;11.858;2023-10-31T03:04:07;1.87;;;1.77;;
16822;SDS011;8528;49.976;11.858;2023-10-31T03:06:33;1.83;;;1.73;;
16822;SDS011;8528;49.976;11.858;2023-10-31T03:09:00;1.70;;;1.60;;
16822;SDS011;8528;49.976;11.858;2023-10-31T03:11:27;1.93;;;1.83;;
16822;SDS011;8528;49.976;11.858;2023-10-31T03:13:54;2.20;;;1.50;;
16822;SDS011;8528;49.976;11.858;2023-10-31T03:16:22;1.30;;;1.20;;
16822;SDS011;8528;49.976;11.858;2023-10-31T03:18:50;1.50;;;1.40;;
16822;SDS011;8528;49.976;11.858;2023-10-31T03:21:17;1.50;;;1.40;;
16822;SDS011;8528;49.976;11.858;2023-10-31T03:23:47;1.97;;;1.87;;
16822;SDS011;8528;49.976;11.858;2023-10-31T03:26:16;1.70;;;1.60;;
16822;SDS011;8528;49.976;11.858;2023-10-31T03:28:43;1.53;;;1.43;;
16822;SDS011;8528;49.976;11.858;2023-10-31T03:31:11;1.40;;;1.30;;
16822;SDS011;8528;49.976;11.858;2023-10-31T03:33:39;1.53;;;1.43;;
16822;SDS011;8528;49.976;11.858;2023-10-31T03:36:06;2.10;;;1.67;;
16822;SDS011;8528;49.976;11.858;2023-10-31T03:38:34;1.87;;;1.77;;
16822;SDS011;8528;49.976;11.858;2023-10-31T03:41:02;1.70;;;1.60;;
16822;SDS011;8528;49.976;11.858;2023-10-31T03:43:29;2.10;;;1.90;;
16822;SDS011;8528;49.976;11.858;2023-10-31T03:45:56;1.90;;;1.80;;
16822;SDS011;8528;49.976;11.858;2023-10-31T03:48:22;2.10;;;2.00;;
16822;SDS011;8528;49.976;11.858;2023-10-31T03:50:49;2.57;;;1.93;;
16822;SDS011;8528;49.976;11.858;2023-10-31T03:53:16;1.93;;;1.83;;
16822;SDS011;8528;49.976;11.858;2023-10-31T03:55:43;3.13;;;1.90;;
16822;SDS011;8528;49.976;11.858;2023-10-31T03:58:10;2.30;;;2.10;;
16822;SDS011;8528;49.976;11.858;2023-10-31T04:00:38;2.27;;;2.10;;
16822;SDS011;8528;49.976;11.858;2023-10-31T04:03:07;2.20;;;2.00;;
16822;SDS011;8528;49.976;11.858;2023-10-31T04:05:35;2.43;;;2.13;;
16822;SDS011;8528;49.976;11.858;2023-10-31T04:08:01;2.03;;;1.93;;
16822;SDS011;8528;49.976;11.858;2023-10-31T04:10:28;3.47;;;2.20;;
16822;SDS011;8528;49.976;11.858;2023-10-31T04:12:55;1.70;;;1.60;;
16822;SDS011;8528;49.976;11.858;2023-10-31T04:15:22;2.40;;;2.20;;
16822;SDS011;8528;49.976;11.858;2023-10-31T04:17:49;1.90;;;1.80;;
16822;SDS011;8528;49.976;11.858;2023-10-31T04:20:16;2.10;;;1.90;;
16822;SDS011;8528;49.976;11.858;2023-10-31T04:22:42;1.90;;;1.80;;
16822;SDS011;8528;49.976;11.858;2023-10-31T04:25:09;2.23;;;2.03;;
16822;SDS011;8528;49.976;11.858;2023-10-31T04:27:36;2.27;;;2.07;;
16822;SDS011;8528;49.976;11.858;2023-10-31T04:30:03;2.03;;;1.87;;
16822;SDS011;8528;49.976;11.858;2023-10-31T04:32:30;2.63;;;2.00;;
16822;SDS011;8528;49.976;11.858;2023-10-31T04:34:57;2.30;;;1.80;;
16822;SDS011;8528;49.976;11.858;2023-10-31T04:37:24;2.53;;;1.90;;
16822;SDS011;8528;49.976;11.858;2023-10-31T04:39:51;1.77;;;1.67;;
16822;SDS011;8528;49.976;11.858;2023-10-31T04:42:18;1.80;;;1.70;;
16822;SDS011;8528;49.976;11.858;2023-10-31T04:44:46;1.47;;;1.37;;
16822;SDS011;8528;49.976;11.858;2023-10-31T04:47:13;1.57;;;1.47;;
16822;SDS011;8528;49.976;11.858;2023-10-31T04:49:40;1.57;;;1.47;;
16822;SDS011;8528;49.976;11.858;2023-10-31T04:52:07;1.60;;;1.50;;
16822;SDS011;8528;49.976;11.858;2023-10-31T04:54:34;1.60;;;1.50;;
16822;SDS011;8528;49.976;11.858;2023-10-31T04:57:01;1.43;;;1.33;;
16822;SDS011;8528;49.976;11.858;2023-10-31T04:59:29;1.70;;;1.60;;
16822;SDS011;8528;49.976;11.858;2023-10-31T05:01:57;1.67;;;1.57;;
16822;SDS011;8528;49.976;11.858;2023-10-31T05:04:25;1.87;;;1.77;;
16822;SDS011;8528;49.976;11.858;2023-10-31T05:06:52;2.00;;;1.80;;
16822;SDS011;8528;49.976;11.858;2023-10-31T05:09:19;1.90;;;1.70;;
16822;SDS011;8528;49.976;11.858;2023-10-31T05:11:47;1.93;;;1.80;;
16822;SDS011;8528;49.976;11.858;2023-10-31T05:14:13;2.77;;;1.77;;
16822;SDS011;8528;49.976;11.858;2023-10-31T05:16:41;1.67;;;1.57;;
16822;SDS011;8528;49.976;11.858;2023-10-31T05:19:09;1.93;;;1.80;;
16822;SDS011;8528;49.976;11.858;2023-10-31T05:21:36;1.97;;;1.60;;
16822;SDS011;8528;49.976;11.858;2023-10-31T05:24:03;2.27;;;1.60;;
16822;SDS011;8528;49.976;11.858;2023-10-31T05:26:30;2.30;;;1.60;;
16822;SDS011;8528;49.976;11.858;2023-10-31T05:28:57;1.90;;;1.80;;
16822;SDS011;8528;49.976;11.858;2023-10-31T05:31:24;1.57;;;1.40;;
16822;SDS011;8528;49.976;11.858;2023-10-31T05:33:51;1.40;;;1.30;;
16822;SDS011;8528;49.976;11.858;2023-10-31T05:36:19;2.37;;;1.40;;
16822;SDS011;8528;49.976;11.858;2023-10-31T05:38:47;1.20;;;1.10;;
16822;SDS011;8528;49.976;11.858;2023-10-31T05:41:14;1.30;;;1.20;;
16822;SDS011;8528;49.976;11.858;2023-10-31T05:43:42;1.57;;;1.47;;
16822;SDS011;8528;49.976;11.858;2023-10-31T05:46:09;1.47;;;1.37;;
16822;SDS011;8528;49.976;11.858;2023-10-31T05:48:43;1.50;;;1.40;;
16822;SDS011;8528;49.976;11.858;2023-10-31T05:51:12;1.40;;;1.30;;
16822;SDS011;8528;49.976;11.858;2023-10-31T05:53:40;1.60;;;1.50;;
16822;SDS011;8528;49.976;11.858;2023-10-31T05:56:09;1.40;;;1.30;;
16822;SDS011;8528;49.976;11.858;2023-10-31T05:58:36;1.47;;;1.37;;
16822;SDS011;8528;49.976;11.858;2023-10-31T06:01:04;1.20;;;1.10;;
16822;SDS011;8528;49.976;11.858;2023-10-31T06:03:32;1.20;;;1.10;;
16822;SDS011;8528;49.976;11.858;2023-10-31T06:05:59;2.97;;;1.30;;
16822;SDS011;8528;49.976;11.858;2023-10-31T06:08:26;1.53;;;1.30;;
16822;SDS011;8528;49.976;11.858;2023-10-31T06:10:56;1.70;;;1.60;;
16822;SDS011;8528;49.976;11.858;2023-10-31T06:13:23;1.40;;;1.30;;
16822;SDS011;8528;49.976;11.858;2023-10-31T06:15:53;2.20;;;1.43;;
16822;SDS011;8528;49.976;11.858;2023-10-31T06:18:26;2.50;;;1.50;;
16822;SDS011;8528;49.976;11.858;2023-10-31T06:20:53;2.50;;;1.60;;
16822;SDS011;8528;49.976;11.858;2023-10-31T06:23:20;3.73;;;2.10;;
16822;SDS011;8528;49.976;11.858;2023-10-31T06:25:47;1.53;;;1.43;;
16822;SDS011;8528;49.976;11.858;2023-10-31T06:28:14;3.07;;;1.47;;
16822;SDS011;8528;49.976;11.858;2023-10-31T06:30:41;1.60;;;1.50;;
16822;SDS011;8528;49.976;11.858;2023-10-31T06:33:08;1.70;;;1.60;;
16822;SDS011;8528;49.976;11.858;2023-10-31T06:35:37;1.60;;;1.50;;
16822;SDS011;8528;49.976;11.858;2023-10-31T06:38:04;1.50;;;1.40;;
16822;SDS011;8528;49.976;11.858;2023-10-31T06:40:30;2.10;;;1.63;;
16822;SDS011;8528;49.976;11.858;2023-10-31T06:42:58;2.33;;;1.60;;
16822;SDS011;8528;49.976;11.858;2023-10-31T06:45:25;3.10;;;1.40;;
16822;SDS011;8528;49.976;11.858;2023-10-31T06:47:52;2.67;;;1.70;;
16822;SDS011;8528;49.976;11.858;2023-10-31T06:50:20;2.13;;;1.60;;
16822;SDS011;8528;49.976;11.858;2023-10-31T06:52:47;1.73;;;1.63;;
16822;SDS011;8528;49.976;11.858;2023-10-31T06:55:13;1.70;;;1.60;;
16822;SDS011;8528;49.976;11.858;2023-10-31T06:57:40;2.10;;;1.67;;
16822;SDS011;8528;49.976;11.858;2023-10-31T07:00:07;1.50;;;1.40;;
16822;SDS011;8528;49.976;11.858;2023-10-31T07:02:38;2.60;;;1.80;;
16822;SDS011;8528;49.976;11.858;2023-10-31T07:05:05;2.03;;;1.70;;
16822;SDS011;8528;49.976;11.858;2023-10-31T07:07:32;2.37;;;1.60;;
16822;SDS011;8528;49.976;11.858;2023-10-31T07:09:59;1.77;;;1.67;;
16822;SDS011;8528;49.976;11.858;2023-10-31T07:12:26;2.10;;;1.90;;
16822;SDS011;8528;49.976;11.858;2023-10-31T07:14:53;1.90;;;1.80;;
16822;SDS011;8528;49.976;11.858;2023-10-31T07:17:20;2.63;;;1.80;;
16822;SDS011;8528;49.976;11.858;2023-10-31T07:19:48;5.73;;;1.60;;
16822;SDS011;8528;49.976;11.858;2023-10-31T07:22:15;2.23;;;1.67;;
16822;SDS011;8528;49.976;11.858;2023-10-31T07:24:42;1.83;;;1.70;;
16822;SDS011;8528;49.976;11.858;2023-10-31T07:27:09;1.97;;;1.77;;
16822;SDS011;8528;49.976;11.858;2023-10-31T07:29:39;1.73;;;1.30;;
16822;SDS011;8528;49.976;11.858;2023-10-31T07:32:07;2.10;;;2.00;;
16822;SDS011;8528;49.976;11.858;2023-10-31T07:34:36;1.93;;;1.73;;
16822;SDS011;8528;49.976;11.858;2023-10-31T07:37:06;1.67;;;1.40;;
16822;SDS011;8528;49.976;11.858;2023-10-31T07:39:33;1.90;;;1.80;;
16822;SDS011;8528;49.976;11.858;2023-10-31T07:42:00;1.93;;;1.70;;
16822;SDS011;8528;49.976;11.858;2023-10-31T07:44:27;1.80;;;1.70;;
16822;SDS011;8528;49.976;11.858;2023-10-31T07:46:54;2.27;;;2.10;;
16822;SDS011;8528;49.976;11.858;2023-10-31T07:49:21;2.53;;;1.97;;
16822;SDS011;8528;49.976;11.858;2023-10-31T07:51:48;2.07;;;1.90;;
16822;SDS011;8528;49.976;11.858;2023-10-31T07:54:15;2.57;;;1.93;;
16822;SDS011;8528;49.976;11.858;2023-10-31T07:56:42;2.13;;;1.70;;
16822;SDS011;8528;49.976;11.858;2023-10-31T07:59:09;2.37;;;1.90;;
16822;SDS011;8528;49.976;11.858;2023-10-31T08:01:37;2.57;;;1.80;;
16822;SDS011;8528;49.976;11.858;2023-10-31T08:04:04;2.73;;;2.00;;
16822;SDS011;8528;49.976;11.858;2023-10-31T08:06:32;2.23;;;2.03;;
16822;SDS011;8528;49.976;11.858;2023-10-31T08:08:59;3.70;;;2.13;;
16822;SDS011;8528;49.976;11.858;2023-10-31T08:11:25;2.30;;;2.10;;
16822;SDS011;8528;49.976;11.858;2023-10-31T08:13:52;2.13;;;1.97;;
16822;SDS011;8528;49.976;11.858;2023-10-31T08:16:20;2.17;;;2.00;;
16822;SDS011;8528;49.976;11.858;2023-10-31T08:18:47;2.00;;;1.90;;
16822;SDS011;8528;49.976;11.858;2023-10-31T08:21:14;2.20;;;2.10;;
16822;SDS011;8528;49.976;11.858;2023-10-31T08:23:41;2.23;;;2.13;;
16822;SDS011;8528;49.976;11.858;2023-10-31T08:26:10;2.47;;;2.10;;
16822;SDS011;8528;49.976;11.858;2023-10-31T08:28:39;2.10;;;1.90;;
16822;SDS011;8528;49.976;11.858;2023-10-31T08:31:07;2.43;;;2.00;;
16822;SDS011;8528;49.976;11.858;2023-10-31T08:33:34;3.03;;;2.00;;
16822;SDS011;8528;49.976;11.858;2023-10-31T08:36:01;2.00;;;1.90;;
16822;SDS011;8528;49.976;11.858;2023-10-31T08:38:28;2.20;;;2.03;;
16822;SDS011;8528;49.976;11.858;2023-10-31T08:40:58;2.03;;;1.90;;
16822;SDS011;8528;49.976;11.858;2023-10-31T08:43:26;10.37;;;7.67;;
16822;SDS011;8528;49.976;11.858;2023-10-31T08:45:53;4.20;;;2.20;;
16822;SDS011;8528;49.976;11.858;2023-10-31T08:48:20;2.10;;;2.00;;
16822;SDS011;8528;49.976;11.858;2023-10-31T08:50:47;3.00;;;1.80;;
16822;SDS011;8528;49.976;11.858;2023-10-31T08:53:14;1.70;;;1.60;;
16822;SDS011;8528;49.976;11.858;2023-10-31T08:55:42;2.20;;;1.63;;
16822;SDS011;8528;49.976;11.858;2023-10-31T08:58:10;2.30;;;2.10;;
16822;SDS011;8528;49.976;11.858;2023-10-31T09:00:39;3.00;;;1.90;;
16822;SDS011;8528;49.976;11.858;2023-10-31T09:03:07;2.50;;;2.30;;
16822;SDS011;8528;49.976;11.858;2023-10-31T09:05:34;2.20;;;2.00;;
16822;SDS011;8528;49.976;11.858;2023-10-31T09:08:01;2.93;;;2.33;;
16822;SDS011;8528;49.976;11.858;2023-10-31T09:10:28;3.20;;;2.20;;
16822;SDS011;8528;49.976;11.858;2023-10-31T09:12:55;3.30;;;2.80;;
16822;SDS011;8528;49.976;11.858;2023-10-31T09:15:22;1.97;;;1.87;;
16822;SDS011;8528;49.976;11.858;2023-10-31T09:17:49;1.83;;;1.73;;
16822;SDS011;8528;49.976;11.858;2023-10-31T09:20:16;2.43;;;2.23;;
16822;SDS011;8528;49.976;11.858;2023-10-31T09:22:46;2.13;;;1.60;;
16822;SDS011;8528;49.976;11.858;2023-10-31T09:25:12;1.60;;;1.50;;
16822;SDS011;8528;49.976;11.858;2023-10-31T09:27:40;1.80;;;1.70;;
16822;SDS011;8528;49.976;11.858;2023-10-31T09:30:07;1.50;;;1.40;;
16822;SDS011;8528;49.976;11.858;2023-10-31T09:32:34;1.63;;;1.40;;
16822;SDS011;8528;49.976;11.858;2023-10-31T09:35:02;2.37;;;1.80;;
16822;SDS011;8528;49.976;11.858;2023-10-31T09:37:29;1.60;;;1.30;;
16822;SDS011;8528;49.976;11.858;2023-10-31T09:39:56;2.37;;;1.33;;
16822;SDS011;8528;49.976;11.858;2023-10-31T09:42:23;2.80;;;1.60;;
16822;SDS011;8528;49.976;11.858;2023-10-31T09:44:49;1.50;;;1.40;;
16822;SDS011;8528;49.976;11.858;2023-10-31T09:47:16;1.70;;;1.40;;
16822;SDS011;8528;49.976;11.858;2023-10-31T09:49:44;1.50;;;1.37;;
16822;SDS011;8528;49.976;11.858;2023-10-31T09:52:11;2.07;;;1.30;;
16822;SDS011;8528;49.976;11.858;2023-10-31T09:54:39;3.50;;;1.60;;
16822;SDS011;8528;49.976;11.858;2023-10-31T09:57:10;1.70;;;1.60;;
16822;SDS011;8528;49.976;11.858;2023-10-31T09:59:38;1.87;;;1.43;;
16822;SDS011;8528;49.976;11.858;2023-10-31T10:02:04;1.60;;;1.50;;
16822;SDS011;8528;49.976;11.858;2023-10-31T10:04:31;2.57;;;1.47;;
16822;SDS011;8528;49.976;11.858;2023-10-31T10:07:03;1.60;;;1.20;;
16822;SDS011;8528;49.976;11.858;2023-10-31T10:09:31;1.57;;;1.40;;
16822;SDS011;8528;49.976;11.858;2023-10-31T10:12:01;2.60;;;1.67;;
16822;SDS011;8528;49.976;11.858;2023-10-31T10:14:28;1.47;;;1.37;;
16822;SDS011;8528;49.976;11.858;2023-10-31T10:16:57;1.67;;;1.40;;
16822;SDS011;8528;49.976;11.858;2023-10-31T10:19:24;1.67;;;1.30;;
16822;SDS011;8528;49.976;11.858;2023-10-31T10:21:56;1.97;;;1.37;;
16822;SDS011;8528;49.976;11.858;2023-10-31T10:24:24;1.70;;;1.60;;
16822;SDS011;8528;49.976;11.858;2023-10-31T10:26:51;1.70;;;1.60;;
16822;SDS011;8528;49.976;11.858;2023-10-31T10:29:19;1.60;;;1.50;;
16822;SDS011;8528;49.976;11.858;2023-10-31T10:31:46;2.00;;;1.63;;
16822;SDS011;8528;49.976;11.858;2023-10-31T10:34:16;2.70;;;1.90;;
16822;SDS011;8528;49.976;11.858;2023-10-31T10:36:47;3.33;;;1.70;;
16822;SDS011;8528;49.976;11.858;2023-10-31T10:39:19;1.70;;;1.60;;
16822;SDS011;8528;49.976;11.858;2023-10-31T10:41:52;2.17;;;1.97;;
16822;SDS011;8528;49.976;11.858;2023-10-31T10:44:26;1.77;;;1.63;;
16822;SDS011;8528;49.976;11.858;2023-10-31T10:47:02;1.50;;;1.40;;
16822;SDS011;8528;49.976;11.858;2023-10-31T10:49:32;1.60;;;1.50;;
16822;SDS011;8528;49.976;11.858;2023-10-31T10:52:18;2.20;;;1.60;;
16822;SDS011;8528;49.976;11.858;2023-10-31T10:55:16;3.00;;;1.60;;
16822;SDS011;8528;49.976;11.858;2023-10-31T10:57:48;2.10;;;1.80;;
16822;SDS011;8528;49.976;11.858;2023-10-31T11:00:31;2.50;;;1.90;;
16822;SDS011;8528;49.976;11.858;2023-10-31T11:02:58;2.00;;;1.80;;
16822;SDS011;8528;49.976;11.858;2023-10-31T11:05:27;3.43;;;2.07;;
16822;SDS011;8528;49.976;11.858;2023-10-31T11:07:55;3.70;;;2.10;;
16822;SDS011;8528;49.976;11.858;2023-10-31T11:10:25;4.67;;;2.10;;
16822;SDS011;8528;49.976;11.858;2023-10-31T11:12:54;2.43;;;2.23;;
16822;SDS011;8528;49.976;11.858;2023-10-31T11:15:23;2.00;;;1.90;;
16822;SDS011;8528;49.976;11.858;2023-10-31T11:17:50;2.40;;;1.90;;
16822;SDS011;8528;49.976;11.858;2023-10-31T11:20:18;2.77;;;2.13;;
16822;SDS011;8528;49.976;11.858;2023-10-31T11:22:47;3.03;;;2.00;;
16822;SDS011;8528;49.976;11.858;2023-10-31T11:25:19;2.10;;;2.00;;
16822;SDS011;8528;49.976;11.858;2023-10-31T11:27:57;2.57;;;2.37;;
16822;SDS011;8528;49.976;11.858;2023-10-31T11:30:41;2.57;;;2.37;;
16822;SDS011;8528;49.976;11.858;2023-10-31T11:33:13;2.50;;;2.30;;
16822;SDS011;8528;49.976;11.858;2023-10-31T11:35:41;2.60;;;2.40;;
16822;SDS011;8528;49.976;11.858;2023-10-31T11:38:11;2.37;;;2.20;;
16822;SDS011;8528;49.976;11.858;2023-10-31T11:40:57;2.50;;;2.30;;
16822;SDS011;8528;49.976;11.858;2023-10-31T11:43:36;3.77;;;2.40;;
16822;SDS011;8528;49.976;11.858;2023-10-31T11:46:27;2.83;;;2.60;;
16822;SDS011;8528;49.976;11.858;2023-10-31T11:48:55;3.17;;;2.97;;
16822;SDS011;8528;49.976;11.858;2023-10-31T11:51:24;2.73;;;2.53;;
16822;SDS011;8528;49.976;11.858;2023-10-31T11:53:51;2.67;;;2.30;;
16822;SDS011;8528;49.976;11.858;2023-10-31T11:56:19;2.97;;;2.00;;
16822;SDS011;8528;49.976;11.858;2023-10-31T11:59:01;2.20;;;2.10;;
16822;SDS011;8528;49.976;11.858;2023-10-31T12:01:30;2.40;;;2.20;;
16822;SDS011;8528;49.976;11.858;2023-10-31T12:03:56;2.53;;;2.33;;
16822;SDS011;8528;49.976;11.858;2023-10-31T12:06:23;2.63;;;2.43;;
16822;SDS011;8528;49.976;11.858;2023-10-31T12:08:50;2.83;;;2.53;;
16822;SDS011;8528;49.976;11.858;2023-10-31T12:11:18;2.47;;;2.27;;
16822;SDS011;8528;49.976;11.858;2023-10-31T12:13:58;2.33;;;2.10;;
16822;SDS011;8528;49.976;11.858;2023-10-31T12:16:30;2.30;;;2.10;;
16822;SDS011;8528;49.976;11.858;2023-10-31T12:19:00;2.43;;;1.97;;
16822;SDS011;8528;49.976;11.858;2023-10-31T12:21:38;1.97;;;1.87;;
16822;SDS011;8528;49.976;11.858;2023-10-31T12:24:10;2.23;;;2.00;;
16822;SDS011;8528;49.976;11.858;2023-10-31T12:26:38;2.23;;;2.03;;
16822;SDS011;8528;49.976;11.858;2023-10-31T12:29:06;2.57;;;2.37;;
16822;SDS011;8528;49.976;11.858;2023-10-31T12:31:48;2.13;;;1.83;;
16822;SDS011;8528;49.976;11.858;2023-10-31T12:34:23;2.20;;;2.00;;
16822;SDS011;8528;49.976;11.858;2023-10-31T12:36:51;1.90;;;1.77;;
16822;SDS011;8528;49.976;11.858;2023-10-31T12:39:25;2.13;;;1.93;;
16822;SDS011;8528;49.976;11.858;2023-10-31T12:41:54;1.77;;;1.60;;
16822;SDS011;8528;49.976;11.858;2023-10-31T12:44:24;2.53;;;1.87;;
16822;SDS011;8528;49.976;11.858;2023-10-31T12:46:53;1.90;;;1.80;;
16822;SDS011;8528;49.976;11.858;2023-10-31T12:49:21;1.93;;;1.80;;
16822;SDS011;8528;49.976;11.858;2023-10-31T12:51:58;2.67;;;2.30;;
16822;SDS011;8528;49.976;11.858;2023-10-31T12:54:34;3.00;;;2.20;;
16822;SDS011;8528;49.976;11.858;2023-10-31T12:57:11;2.10;;;2.00;;
16822;SDS011;8528;49.976;11.858;2023-10-31T12:59:38;1.97;;;1.87;;
16822;SDS011;8528;49.976;11.858;2023-10-31T13:02:06;2.00;;;1.80;;
16822;SDS011;8528;49.976;11.858;2023-10-31T13:04:35;1.97;;;1.80;;
16822;SDS011;8528;49.976;11.858;2023-10-31T13:07:06;2.07;;;1.90;;
16822;SDS011;8528;49.976;11.858;2023-10-31T13:09:35;2.50;;;2.30;;
16822;SDS011;8528;49.976;11.858;2023-10-31T13:12:06;2.30;;;2.13;;
16822;SDS011;8528;49.976;11.858;2023-10-31T13:14:34;1.97;;;1.80;;
16822;SDS011;8528;49.976;11.858;2023-10-31T13:17:02;2.13;;;1.93;;
16822;SDS011;8528;49.976;11.858;2023-10-31T13:19:30;2.13;;;1.90;;
16822;SDS011;8528;49.976;11.858;2023-10-31T13:21:56;1.80;;;1.70;;
16822;SDS011;8528;49.976;11.858;2023-10-31T13:24:23;2.13;;;1.90;;
16822;SDS011;8528;49.976;11.858;2023-10-31T13:26:50;1.60;;;1.50;;
16822;SDS011;8528;49.976;11.858;2023-10-31T13:29:19;1.43;;;1.33;;
16822;SDS011;8528;49.976;11.858;2023-10-31T13:31:46;1.60;;;1.50;;
16822;SDS011;8528;49.976;11.858;2023-10-31T13:34:13;2.60;;;2.27;;
16822;SDS011;8528;49.976;11.858;2023-10-31T13:36:40;1.83;;;1.70;;
16822;SDS011;8528;49.976;11.858;2023-10-31T13:39:07;2.03;;;1.90;;
16822;SDS011;8528;49.976;11.858;2023-10-31T13:41:35;1.67;;;1.57;;
16822;SDS011;8528;49.976;11.858;2023-10-31T13:44:02;1.60;;;1.50;;
16822;SDS011;8528;49.976;11.858;2023-10-31T13:46:29;2.20;;;2.00;;
16822;SDS011;8528;49.976;11.858;2023-10-31T13:48:57;2.53;;;1.90;;
16822;SDS011;8528;49.976;11.858;2023-10-31T13:51:23;2.20;;;2.00;;
16822;SDS011;8528;49.976;11.858;2023-10-31T13:53:50;2.00;;;1.90;;
16822;SDS011;8528;49.976;11.858;2023-10-31T13:56:17;2.07;;;1.90;;
16822;SDS011;8528;49.976;11.858;2023-10-31T13:58:44;2.23;;;2.03;;
16822;SDS011;8528;49.976;11.858;2023-10-31T14:01:11;2.47;;;2.27;;
16822;SDS011;8528;49.976;11.858;2023-10-31T14:03:39;4.67;;;2.90;;
16822;SDS011;8528;49.976;11.858;2023-10-31T14:06:06;2.43;;;2.23;;
16822;SDS011;8528;49.976;11.858;2023-10-31T14:08:33;2.90;;;2.60;;
16822;SDS011;8528;49.976;11.858;2023-10-31T14:11:00;3.20;;;2.37;;
16822;SDS011;8528;49.976;11.858;2023-10-31T14:13:27;2.37;;;2.17;;
16822;SDS011;8528;49.976;11.858;2023-10-31T14:15:54;2.33;;;2.07;;
16822;SDS011;8528;49.976;11.858;2023-10-31T14:18:21;3.10;;;2.60;;
16822;SDS011;8528;49.976;11.858;2023-10-31T14:20:48;2.57;;;2.37;;
16822;SDS011;8528;49.976;11.858;2023-10-31T14:23:14;3.00;;;2.63;;
16822;SDS011;8528;49.976;11.858;2023-10-31T14:25:41;2.20;;;2.00;;
16822;SDS011;8528;49.976;11.858;2023-10-31T14:28:09;3.20;;;2.00;;
16822;SDS011;8528;49.976;11.858;2023-10-31T14:30:36;2.50;;;2.30;;
16822;SDS011;8528;49.976;11.858;2023-10-31T14:33:03;4.17;;;3.03;;
16822;SDS011;8528;49.976;11.858;2023-10-31T14:35:30;2.73;;;2.53;;
16822;SDS011;8528;49.976;11.858;2023-10-31T14:37:57;7.83;;;5.30;;
16822;SDS011;8528;49.976;11.858;2023-10-31T14:40:24;5.03;;;2.90;;
16822;SDS011;8528;49.976;11.858;2023-10-31T14:42:52;3.97;;;2.77;;
16822;SDS011;8528;49.976;11.858;2023-10-31T14:45:18;10.37;;;8.47;;
16822;SDS011;8528;49.976;11.858;2023-10-31T14:47:45;2.70;;;2.50;;
16822;SDS011;8528;49.976;11.858;2023-10-31T14:50:12;3.90;;;2.50;;
16822;SDS011;8528;49.976;11.858;2023-10-31T14:52:39;6.03;;;2.97;;
16822;SDS011;8528;49.976;11.858;2023-10-31T14:55:07;2.73;;;2.50;;